createdAt,value
2024-04-12T00:00:16.210Z,24.18
2024-04-12T00:01:16.156Z,24.20
2024-04-12T00:02:32.066Z,24.20
2024-04-12T00:03:16.195Z,24.17
2024-04-12T00:04:16.148Z,24.19
2024-04-12T00:05:16.160Z,24.20
2024-04-12T00:06:16.196Z,24.20
2024-04-12T00:07:18.007Z,24.20
2024-04-12T00:08:16.142Z,24.20
2024-04-12T00:09:16.147Z,24.20
2024-04-12T00:10:16.135Z,24.19
2024-04-12T00:11:16.176Z,24.20
2024-04-12T00:12:16.241Z,24.20
2024-04-12T00:13:16.155Z,24.20
2024-04-12T00:14:16.153Z,24.20
2024-04-12T00:15:16.179Z,24.20
2024-04-12T00:16:16.188Z,24.20
2024-04-12T00:17:16.147Z,24.20
2024-04-12T00:18:17.136Z,24.20
2024-04-12T00:19:16.187Z,24.20
2024-04-12T00:20:16.157Z,24.19
2024-04-12T00:21:24.015Z,24.19
2024-04-12T00:22:16.260Z,24.18
2024-04-12T00:23:16.167Z,24.18
2024-04-12T00:24:19.002Z,24.19
2024-04-12T00:25:16.176Z,24.19
2024-04-12T00:26:16.159Z,24.19
2024-04-12T00:27:23.511Z,24.19
2024-04-12T00:28:16.172Z,24.17
2024-04-12T00:29:16.161Z,24.18
2024-04-12T00:30:42.533Z,24.18
2024-04-12T00:31:16.178Z,24.13
2024-04-12T00:32:16.208Z,24.15
2024-04-12T00:33:16.317Z,24.17
2024-04-12T00:34:16.246Z,24.17
2024-04-12T00:35:16.195Z,24.17
2024-04-12T00:36:16.282Z,24.17
2024-04-12T00:37:16.298Z,24.17
2024-04-12T00:38:16.311Z,24.17
2024-04-12T00:39:16.360Z,24.17
2024-04-12T00:40:16.446Z,24.18
2024-04-12T00:41:16.467Z,24.18
2024-04-12T00:42:16.490Z,24.18
2024-04-12T00:43:16.547Z,24.17
2024-04-12T00:44:16.583Z,24.17
2024-04-12T00:45:16.738Z,24.18
2024-04-12T00:46:16.658Z,24.17
2024-04-12T00:47:16.726Z,24.17
2024-04-12T00:48:16.839Z,24.17
2024-04-12T00:49:16.786Z,24.17
2024-04-12T00:50:16.824Z,24.17
2024-04-12T00:51:16.890Z,24.17
2024-04-12T00:52:31.512Z,24.17
2024-04-12T00:53:17.309Z,24.14
2024-04-12T00:54:17.152Z,24.15
2024-04-12T00:55:32.026Z,24.16
2024-04-12T00:56:17.226Z,24.13
2024-04-12T00:57:17.174Z,24.15
2024-04-12T00:58:17.178Z,24.15
2024-04-12T00:59:17.186Z,24.15
2024-04-12T01:00:17.205Z,24.15
2024-04-12T01:01:17.373Z,24.16
2024-04-12T01:02:17.223Z,24.15
2024-04-12T01:03:17.261Z,24.16
2024-04-12T01:04:17.242Z,24.16
2024-04-12T01:05:17.195Z,24.16
2024-04-12T01:06:17.213Z,24.16
2024-04-12T01:07:17.191Z,24.16
2024-04-12T01:08:17.195Z,24.15
2024-04-12T01:09:17.199Z,24.16
2024-04-12T01:10:17.200Z,24.16
2024-04-12T01:11:17.248Z,24.16
2024-04-12T01:12:17.208Z,24.15
2024-04-12T01:13:17.213Z,24.16
2024-04-12T01:14:32.075Z,24.16
2024-04-12T01:15:17.217Z,24.13
2024-04-12T01:16:17.219Z,24.14
2024-04-12T01:17:20.182Z,24.14
2024-04-12T01:18:17.322Z,24.14
2024-04-12T01:19:17.211Z,24.14
2024-04-12T01:20:24.024Z,24.14
2024-04-12T01:21:17.267Z,24.13
2024-04-12T01:22:17.224Z,24.14
2024-04-12T01:23:53.087Z,24.14
2024-04-12T01:24:17.222Z,24.07
2024-04-12T01:25:17.216Z,24.11
2024-04-12T01:26:17.231Z,24.12
2024-04-12T01:27:17.228Z,24.13
2024-04-12T01:28:17.464Z,24.14
2024-04-12T01:29:17.231Z,24.13
2024-04-12T01:30:17.241Z,24.14
2024-04-12T01:31:17.230Z,24.13
2024-04-12T01:32:17.284Z,24.15
2024-04-12T01:33:17.382Z,24.14
2024-04-12T01:34:17.238Z,24.14
2024-04-12T01:35:17.229Z,24.14
2024-04-12T01:36:17.239Z,24.14
2024-04-12T01:37:17.309Z,24.14
2024-04-12T01:38:17.245Z,24.14
2024-04-12T01:39:20.039Z,24.14
2024-04-12T01:40:17.238Z,24.14
2024-04-12T01:41:17.241Z,24.14
2024-04-12T01:42:17.237Z,24.14
2024-04-12T01:43:17.241Z,24.14
2024-04-12T01:44:17.248Z,24.14
2024-04-12T01:45:20.045Z,24.14
2024-04-12T01:46:17.260Z,24.13
2024-04-12T01:47:17.251Z,24.13
2024-04-12T01:48:41.765Z,24.13
2024-04-12T01:49:17.264Z,24.09
2024-04-12T01:50:17.259Z,24.11
2024-04-12T01:51:31.557Z,24.11
2024-04-12T01:52:17.259Z,24.10
2024-04-12T01:53:17.263Z,24.11
2024-04-12T01:54:17.262Z,24.11
2024-04-12T01:55:17.272Z,24.13
2024-04-12T01:56:17.276Z,24.12
2024-04-12T01:57:17.309Z,24.12
2024-04-12T01:58:17.356Z,24.12
2024-04-12T01:59:17.419Z,24.13
2024-04-12T02:00:17.503Z,24.12
2024-04-12T02:01:17.621Z,24.13
2024-04-12T02:02:17.550Z,24.13
2024-04-12T02:03:17.628Z,24.12
2024-04-12T02:04:17.683Z,24.12
2024-04-12T02:05:17.706Z,24.12
2024-04-12T02:06:18.295Z,24.13
2024-04-12T02:07:28.558Z,24.12
2024-04-12T02:08:17.868Z,24.11
2024-04-12T02:09:17.768Z,24.12
2024-04-12T02:10:18.562Z,24.11
2024-04-12T02:11:17.820Z,24.12
2024-04-12T02:12:17.796Z,24.12
2024-04-12T02:13:32.557Z,24.12
2024-04-12T02:14:17.783Z,24.09
2024-04-12T02:15:17.781Z,24.11
2024-04-12T02:16:40.575Z,24.10
2024-04-12T02:17:17.782Z,24.07
2024-04-12T02:18:17.817Z,24.08
2024-04-12T02:19:17.923Z,24.10
2024-04-12T02:20:17.801Z,24.10
2024-04-12T02:21:17.842Z,24.11
2024-04-12T02:22:17.791Z,24.11
2024-04-12T02:23:17.789Z,24.11
2024-04-12T02:24:17.793Z,24.11
2024-04-12T02:25:17.814Z,24.10
2024-04-12T02:26:17.819Z,24.10
2024-04-12T02:27:17.796Z,24.10
2024-04-12T02:28:17.806Z,24.11
2024-04-12T02:29:17.792Z,24.10
2024-04-12T02:30:17.854Z,24.11
2024-04-12T02:31:17.809Z,24.11
2024-04-12T02:32:17.867Z,24.11
2024-04-12T02:33:18.168Z,24.10
2024-04-12T02:34:17.929Z,24.10
2024-04-12T02:35:32.611Z,24.10
2024-04-12T02:36:18.376Z,24.08
2024-04-12T02:37:18.226Z,24.09
2024-04-12T02:38:33.248Z,24.10
2024-04-12T02:39:18.253Z,24.08
2024-04-12T02:40:18.259Z,24.09
2024-04-12T02:41:39.555Z,24.09
2024-04-12T02:42:18.261Z,24.06
2024-04-12T02:43:18.272Z,24.08
2024-04-12T02:44:54.115Z,24.09
2024-04-12T02:45:18.267Z,24.01
2024-04-12T02:46:18.269Z,24.06
2024-04-12T02:47:18.297Z,24.07
2024-04-12T02:48:18.367Z,24.08
2024-04-12T02:49:18.278Z,24.08
2024-04-12T02:50:18.287Z,24.09
2024-04-12T02:51:18.282Z,24.09
2024-04-12T02:52:18.277Z,24.09
2024-04-12T02:53:18.279Z,24.09
2024-04-12T02:54:18.383Z,24.08
2024-04-12T02:55:18.283Z,24.09
2024-04-12T02:56:18.290Z,24.09
2024-04-12T02:57:18.288Z,24.09
2024-04-12T02:58:18.280Z,24.09
2024-04-12T02:59:18.281Z,24.09
2024-04-12T03:00:25.092Z,24.09
2024-04-12T03:01:18.310Z,24.09
2024-04-12T03:02:18.358Z,24.09
2024-04-12T03:03:34.655Z,24.09
2024-04-12T03:04:18.296Z,24.06
2024-04-12T03:05:18.288Z,24.07
2024-04-12T03:06:21.610Z,24.08
2024-04-12T03:07:18.302Z,24.07
2024-04-12T03:08:18.307Z,24.07
2024-04-12T03:09:34.621Z,24.08
2024-04-12T03:10:18.321Z,24.06
2024-04-12T03:11:18.327Z,24.06
2024-04-12T03:12:18.409Z,24.07
2024-04-12T03:13:18.316Z,24.07
2024-04-12T03:14:18.320Z,24.07
2024-04-12T03:15:18.316Z,24.08
2024-04-12T03:16:18.337Z,24.08
2024-04-12T03:17:18.325Z,24.08
2024-04-12T03:18:18.384Z,24.08
2024-04-12T03:19:18.330Z,24.08
2024-04-12T03:20:18.329Z,24.08
2024-04-12T03:21:18.332Z,24.07
2024-04-12T03:22:18.325Z,24.08
2024-04-12T03:23:18.324Z,24.08
2024-04-12T03:24:18.374Z,24.07
2024-04-12T03:25:18.331Z,24.07
2024-04-12T03:26:18.336Z,24.08
2024-04-12T03:27:18.358Z,24.07
2024-04-12T03:28:33.095Z,24.08
2024-04-12T03:29:18.702Z,24.06
2024-04-12T03:30:18.323Z,24.06
2024-04-12T03:31:32.618Z,24.07
2024-04-12T03:32:18.345Z,24.05
2024-04-12T03:33:18.416Z,24.06
2024-04-12T03:34:39.427Z,24.07
2024-04-12T03:35:18.402Z,24.03
2024-04-12T03:36:18.348Z,24.06
2024-04-12T03:37:54.098Z,24.06
2024-04-12T03:38:18.350Z,23.97
2024-04-12T03:39:18.355Z,24.03
2024-04-12T03:40:18.421Z,24.04
2024-04-12T03:41:18.362Z,24.05
2024-04-12T03:42:18.439Z,24.06
2024-04-12T03:43:18.355Z,24.06
2024-04-12T03:44:18.360Z,24.07
2024-04-12T03:45:18.478Z,24.06
2024-04-12T03:46:18.355Z,24.06
2024-04-12T03:47:18.362Z,24.06
2024-04-12T03:48:18.466Z,24.06
2024-04-12T03:49:18.356Z,24.07
2024-04-12T03:50:18.356Z,24.07
2024-04-12T03:51:18.403Z,24.07
2024-04-12T03:52:18.364Z,24.07
2024-04-12T03:53:18.372Z,24.06
2024-04-12T03:54:18.371Z,24.06
2024-04-12T03:55:18.366Z,24.07
2024-04-12T03:56:20.145Z,24.06
2024-04-12T03:57:18.466Z,24.06
2024-04-12T03:58:18.498Z,24.06
2024-04-12T03:59:33.141Z,24.06
2024-04-12T04:00:18.440Z,24.04
2024-04-12T04:01:18.388Z,24.05
2024-04-12T04:02:41.659Z,24.05
2024-04-12T04:03:18.383Z,24.01
2024-04-12T04:04:18.386Z,24.03
2024-04-12T04:05:18.396Z,24.04
2024-04-12T04:06:18.412Z,24.05
2024-04-12T04:07:19.808Z,24.06
2024-04-12T04:08:18.622Z,24.05
2024-04-12T04:09:18.480Z,24.05
2024-04-12T04:10:18.520Z,24.05
2024-04-12T04:11:18.599Z,24.06
2024-04-12T04:12:19.386Z,24.06
2024-04-12T04:13:18.669Z,24.05
2024-04-12T04:14:18.716Z,24.05
2024-04-12T04:15:18.856Z,24.05
2024-04-12T04:16:18.823Z,24.06
2024-04-12T04:17:18.968Z,24.05
2024-04-12T04:18:25.678Z,24.05
2024-04-12T04:19:19.140Z,24.04
2024-04-12T04:20:18.927Z,24.04
2024-04-12T04:21:26.628Z,24.05
2024-04-12T04:22:18.932Z,24.03
2024-04-12T04:23:18.932Z,24.05
2024-04-12T04:24:18.933Z,24.04
2024-04-12T04:25:18.930Z,24.04
2024-04-12T04:26:18.933Z,24.04
2024-04-12T04:27:40.042Z,24.05
2024-04-12T04:28:18.940Z,24.01
2024-04-12T04:29:18.929Z,24.03
2024-04-12T04:30:54.626Z,24.03
2024-04-12T04:31:19.753Z,23.95
2024-04-12T04:32:19.123Z,23.99
2024-04-12T04:33:19.067Z,24.01
2024-04-12T04:34:18.947Z,24.02
2024-04-12T04:35:18.945Z,24.03
2024-04-12T04:36:18.948Z,24.04
2024-04-12T04:37:23.333Z,24.03
2024-04-12T04:38:19.956Z,24.03
2024-04-12T04:39:18.983Z,24.03
2024-04-12T04:40:19.963Z,24.04
2024-04-12T04:41:18.955Z,24.04
2024-04-12T04:42:18.958Z,24.04
2024-04-12T04:43:18.958Z,24.04
2024-04-12T04:44:18.990Z,24.04
2024-04-12T04:45:19.328Z,24.04
2024-04-12T04:46:18.961Z,24.04
2024-04-12T04:47:18.959Z,24.04
2024-04-12T04:48:19.182Z,24.03
2024-04-12T04:49:19.060Z,24.04
2024-04-12T04:50:18.955Z,24.03
2024-04-12T04:51:19.042Z,24.04
2024-04-12T04:52:26.393Z,24.02
2024-04-12T04:53:26.359Z,24.03
2024-04-12T04:54:26.372Z,24.04
2024-04-12T04:55:47.384Z,24.04
2024-04-12T04:56:26.369Z,24.00
2024-04-12T04:57:26.359Z,24.03
2024-04-12T04:58:40.965Z,24.04
2024-04-12T04:59:26.579Z,24.03
2024-04-12T05:00:26.639Z,24.04
2024-04-12T05:01:26.667Z,24.05
2024-04-12T05:02:26.671Z,24.07
2024-04-12T05:03:26.759Z,24.07
2024-04-12T05:04:26.703Z,24.07
2024-04-12T05:05:27.428Z,24.08
2024-04-12T05:06:26.785Z,24.08
2024-04-12T05:07:26.786Z,24.08
2024-04-12T05:08:26.815Z,24.09
2024-04-12T05:09:26.844Z,24.09
2024-04-12T05:10:27.290Z,24.09
2024-04-12T05:11:26.987Z,24.10
2024-04-12T05:12:27.049Z,24.10
2024-04-12T05:13:27.128Z,24.11
2024-04-12T05:14:26.987Z,24.11
2024-04-12T05:15:26.999Z,24.11
2024-04-12T05:16:27.037Z,24.10
2024-04-12T05:17:30.532Z,24.11
2024-04-12T05:18:27.128Z,24.11
2024-04-12T05:19:27.079Z,24.12
2024-04-12T05:20:42.113Z,24.12
2024-04-12T05:21:27.058Z,24.10
2024-04-12T05:22:27.069Z,24.11
2024-04-12T05:23:55.008Z,24.12
2024-04-12T05:24:27.069Z,24.07
2024-04-12T05:25:27.070Z,24.10
2024-04-12T05:26:55.017Z,24.12
2024-04-12T05:27:27.083Z,24.08
2024-04-12T05:28:27.078Z,24.12
2024-04-12T05:29:27.099Z,24.15
2024-04-12T05:30:27.088Z,24.16
2024-04-12T05:31:27.091Z,24.10
2024-04-12T05:32:27.534Z,24.06
2024-04-12T05:33:27.163Z,23.96
2024-04-12T05:34:27.099Z,23.86
2024-04-12T05:35:27.088Z,23.76
2024-04-12T05:36:28.001Z,23.69
2024-04-12T05:37:27.492Z,23.64
2024-04-12T05:38:27.091Z,23.62
2024-04-12T05:39:27.164Z,23.58
2024-04-12T05:40:27.094Z,23.59
2024-04-12T05:41:27.094Z,23.60
2024-04-12T05:42:27.559Z,23.65
2024-04-12T05:43:27.096Z,23.70
2024-04-12T05:44:27.098Z,23.76
2024-04-12T05:45:41.991Z,23.82
2024-04-12T05:46:27.106Z,23.87
2024-04-12T05:47:27.143Z,23.94
2024-04-12T05:48:48.184Z,24.01
2024-04-12T05:49:27.115Z,24.04
2024-04-12T05:50:27.125Z,24.11
2024-04-12T05:51:48.164Z,24.18
2024-04-12T05:52:27.113Z,24.20
2024-04-12T05:53:27.121Z,24.28
2024-04-12T05:54:27.127Z,24.33
2024-04-12T05:55:27.112Z,24.38
2024-04-12T05:56:27.429Z,24.42
2024-04-12T05:57:27.502Z,24.45
2024-04-12T05:58:27.118Z,24.49
2024-04-12T05:59:27.126Z,24.52
2024-04-12T06:00:27.125Z,24.55
2024-04-12T06:01:27.318Z,24.58
2024-04-12T06:02:27.165Z,24.61
2024-04-12T06:03:27.177Z,24.65
2024-04-12T06:04:27.119Z,24.67
2024-04-12T06:05:27.133Z,24.70
2024-04-12T06:06:27.142Z,24.73
2024-04-12T06:07:27.129Z,24.76
2024-04-12T06:08:27.137Z,24.79
2024-04-12T06:09:27.190Z,24.80
2024-04-12T06:10:29.999Z,24.82
2024-04-12T06:11:27.203Z,24.84
2024-04-12T06:12:27.301Z,24.86
2024-04-12T06:13:34.003Z,24.88
2024-04-12T06:14:27.141Z,24.88
2024-04-12T06:15:27.147Z,24.92
2024-04-12T06:16:51.543Z,24.93
2024-04-12T06:17:27.182Z,24.90
2024-04-12T06:18:27.302Z,24.94
2024-04-12T06:20:27.172Z,24.90
2024-04-12T06:21:27.181Z,24.96
2024-04-12T06:22:27.170Z,24.98
2024-04-12T06:23:29.030Z,24.99
2024-04-12T06:24:27.166Z,25.00
2024-04-12T06:25:27.164Z,25.00
2024-04-12T06:26:27.171Z,25.01
2024-04-12T06:27:27.172Z,25.03
2024-04-12T06:28:27.174Z,25.03
2024-04-12T06:29:32.968Z,25.05
2024-04-12T06:30:28.172Z,25.06
2024-04-12T06:31:27.161Z,25.06
2024-04-12T06:32:30.594Z,25.07
2024-04-12T06:33:27.258Z,25.07
2024-04-12T06:34:27.199Z,25.06
2024-04-12T06:35:34.013Z,25.05
2024-04-12T06:36:27.181Z,25.04
2024-04-12T06:37:27.175Z,25.04
2024-04-12T06:38:27.197Z,25.06
2024-04-12T06:39:27.164Z,25.07
2024-04-12T06:40:27.162Z,25.08
2024-04-12T06:41:34.014Z,25.08
2024-04-12T06:42:27.179Z,25.09
2024-04-12T06:43:27.172Z,25.09
2024-04-12T06:44:48.268Z,25.09
2024-04-12T06:45:27.182Z,25.07
2024-04-12T06:46:27.182Z,25.11
2024-04-12T06:47:27.337Z,25.14
2024-04-12T06:48:27.282Z,25.14
2024-04-12T06:49:27.184Z,25.15
2024-04-12T06:50:27.189Z,25.15
2024-04-12T06:51:27.191Z,25.15
2024-04-12T06:52:27.237Z,25.15
2024-04-12T06:53:27.202Z,25.16
2024-04-12T06:54:27.195Z,25.17
2024-04-12T06:55:27.191Z,25.17
2024-04-12T06:56:27.200Z,25.18
2024-04-12T06:57:27.231Z,25.19
2024-04-12T06:58:27.204Z,25.19
2024-04-12T06:59:27.217Z,25.18
2024-04-12T07:00:27.308Z,25.19
2024-04-12T07:01:27.267Z,25.19
2024-04-12T07:02:27.381Z,25.19
2024-04-12T07:03:27.338Z,25.20
2024-04-12T07:04:27.218Z,25.20
2024-04-12T07:05:27.208Z,25.21
2024-04-12T07:06:42.040Z,25.22
2024-04-12T07:07:27.216Z,25.20
2024-04-12T07:08:27.210Z,25.21
2024-04-12T07:09:42.027Z,25.23
2024-04-12T07:10:27.224Z,25.22
2024-04-12T07:11:27.215Z,25.23
2024-04-12T07:12:48.254Z,25.24
2024-04-12T07:13:27.236Z,25.22
2024-04-12T07:14:27.226Z,25.26
2024-04-12T07:15:27.222Z,25.27
2024-04-12T07:16:27.223Z,25.29
2024-04-12T07:17:27.394Z,25.32
2024-04-12T07:18:27.300Z,25.34
2024-04-12T07:19:27.229Z,25.34
2024-04-12T07:20:28.767Z,25.36
2024-04-12T07:21:27.284Z,25.36
2024-04-12T07:22:27.231Z,25.36
2024-04-12T07:23:27.235Z,25.38
2024-04-12T07:24:27.229Z,25.38
2024-04-12T07:25:27.228Z,25.39
2024-04-12T07:26:27.238Z,25.40
2024-04-12T07:27:27.237Z,25.41
2024-04-12T07:28:34.543Z,25.41
2024-04-12T07:29:27.228Z,25.42
2024-04-12T07:30:27.241Z,25.42
2024-04-12T07:31:27.235Z,25.44
2024-04-12T07:32:27.378Z,25.46
2024-04-12T07:33:27.381Z,25.47
2024-04-12T07:34:42.043Z,25.49
2024-04-12T07:35:27.307Z,25.48
2024-04-12T07:36:27.247Z,25.50
2024-04-12T07:37:51.551Z,25.50
2024-04-12T07:38:27.253Z,25.46
2024-04-12T07:39:27.299Z,25.50
2024-04-12T07:40:27.337Z,25.51
2024-04-12T07:41:27.291Z,25.51
2024-04-12T07:42:27.282Z,25.52
2024-04-12T07:43:27.274Z,25.53
2024-04-12T07:44:27.270Z,25.55
2024-04-12T07:45:27.284Z,25.56
2024-04-12T07:46:27.271Z,25.58
2024-04-12T07:47:27.322Z,25.59
2024-04-12T07:48:30.722Z,25.60
2024-04-12T07:49:28.304Z,25.60
2024-04-12T07:50:27.292Z,25.62
2024-04-12T07:51:27.281Z,25.64
2024-04-12T07:52:27.285Z,25.63
2024-04-12T07:53:27.334Z,25.65
2024-04-12T07:54:27.294Z,25.65
2024-04-12T07:55:27.281Z,25.65
2024-04-12T07:56:34.563Z,25.67
2024-04-12T07:57:27.288Z,25.68
2024-04-12T07:58:27.292Z,25.69
2024-04-12T07:59:48.311Z,25.69
2024-04-12T08:00:27.301Z,25.67
2024-04-12T08:01:27.536Z,25.71
2024-04-12T08:02:41.691Z,25.71
2024-04-12T08:03:27.594Z,25.70
2024-04-12T08:04:27.506Z,25.71
2024-04-12T08:05:48.357Z,25.73
2024-04-12T08:06:27.317Z,25.70
2024-04-12T08:07:29.213Z,25.74
2024-04-12T08:08:27.331Z,25.75
2024-04-12T08:09:27.345Z,25.77
2024-04-12T08:10:27.337Z,25.77
2024-04-12T08:11:27.352Z,25.77
2024-04-12T08:12:27.343Z,25.78
2024-04-12T08:13:27.330Z,25.80
2024-04-12T08:14:27.338Z,25.82
2024-04-12T08:15:27.376Z,25.84
2024-04-12T08:16:27.343Z,25.85
2024-04-12T08:17:27.499Z,25.85
2024-04-12T08:18:27.587Z,25.87
2024-04-12T08:19:27.505Z,25.88
2024-04-12T08:20:27.499Z,25.88
2024-04-12T08:21:27.586Z,25.88
2024-04-12T08:22:27.661Z,25.86
2024-04-12T08:23:27.359Z,25.86
2024-04-12T08:24:34.066Z,25.86
2024-04-12T08:25:27.365Z,25.85
2024-04-12T08:26:27.379Z,25.85
2024-04-12T08:27:41.575Z,25.84
2024-04-12T08:28:27.369Z,25.80
2024-04-12T08:29:27.362Z,25.81
2024-04-12T08:30:55.077Z,25.80
2024-04-12T08:31:27.374Z,25.74
2024-04-12T08:32:27.400Z,25.76
2024-04-12T08:33:27.437Z,25.76
2024-04-12T08:34:27.374Z,25.75
2024-04-12T08:35:27.439Z,25.73
2024-04-12T08:36:27.423Z,25.66
2024-04-12T08:37:27.392Z,25.61
2024-04-12T08:38:27.391Z,25.61
2024-04-12T08:39:27.418Z,25.62
2024-04-12T08:40:27.872Z,25.62
2024-04-12T08:41:27.391Z,25.63
2024-04-12T08:42:27.386Z,25.65
2024-04-12T08:43:27.383Z,25.68
2024-04-12T08:44:27.408Z,25.70
2024-04-12T08:45:27.394Z,25.71
2024-04-12T08:46:27.404Z,25.73
2024-04-12T08:47:27.448Z,25.75
2024-04-12T08:48:27.563Z,25.76
2024-04-12T08:49:34.583Z,25.77
2024-04-12T08:50:27.382Z,25.74
2024-04-12T08:51:27.385Z,25.76
2024-04-12T08:52:38.098Z,25.78
2024-04-12T08:53:27.403Z,25.77
2024-04-12T08:54:27.415Z,25.78
2024-04-12T08:55:42.083Z,25.76
2024-04-12T08:56:27.435Z,25.75
2024-04-12T08:57:27.594Z,25.77
2024-04-12T08:58:53.700Z,25.78
2024-04-12T08:59:27.406Z,25.73
2024-04-12T09:00:28.909Z,25.77
2024-04-12T09:01:27.460Z,25.79
2024-04-12T09:02:27.408Z,25.79
2024-04-12T09:03:28.117Z,25.79
2024-04-12T09:04:27.521Z,25.81
2024-04-12T09:05:27.416Z,25.82
2024-04-12T09:06:27.401Z,25.84
2024-04-12T09:07:27.411Z,25.82
2024-04-12T09:08:29.951Z,25.84
2024-04-12T09:09:27.488Z,25.84
2024-04-12T09:10:27.440Z,25.84
2024-04-12T09:11:27.490Z,25.85
2024-04-12T09:12:27.431Z,25.87
2024-04-12T09:13:29.306Z,25.88
2024-04-12T09:14:30.089Z,25.87
2024-04-12T09:15:27.446Z,25.87
2024-04-12T09:16:27.442Z,25.87
2024-04-12T09:17:27.684Z,25.87
2024-04-12T09:18:28.198Z,25.89
2024-04-12T09:19:27.716Z,25.89
2024-04-12T09:20:27.443Z,25.89
2024-04-12T09:21:27.563Z,25.89
2024-04-12T09:22:27.445Z,25.90
2024-04-12T09:23:48.476Z,25.90
2024-04-12T09:24:27.460Z,25.87
2024-04-12T09:25:27.537Z,25.90
2024-04-12T09:26:27.661Z,25.89
2024-04-12T09:27:27.483Z,25.88
2024-04-12T09:28:27.461Z,25.85
2024-04-12T09:29:27.456Z,25.83
2024-04-12T09:30:27.463Z,25.79
2024-04-12T09:31:27.464Z,25.75
2024-04-12T09:32:27.647Z,25.70
2024-04-12T09:33:27.575Z,25.66
2024-04-12T09:34:27.614Z,25.60
2024-04-12T09:35:27.478Z,25.55
2024-04-12T09:36:27.555Z,25.51
2024-04-12T09:37:27.500Z,25.48
2024-04-12T09:38:27.482Z,25.42
2024-04-12T09:39:34.103Z,25.38
2024-04-12T09:40:27.463Z,25.32
2024-04-12T09:41:27.472Z,25.30
2024-04-12T09:42:27.474Z,25.25
2024-04-12T09:43:27.485Z,25.20
2024-04-12T09:44:27.496Z,25.19
2024-04-12T09:45:34.264Z,25.18
2024-04-12T09:46:27.481Z,25.18
2024-04-12T09:47:27.655Z,25.15
2024-04-12T09:48:43.786Z,25.12
2024-04-12T09:49:27.510Z,25.09
2024-04-12T09:50:27.503Z,25.08
2024-04-12T09:51:27.590Z,25.07
2024-04-12T09:52:27.518Z,25.06
2024-04-12T09:53:27.497Z,25.06
2024-04-12T09:54:27.485Z,25.05
2024-04-12T09:55:27.491Z,25.05
2024-04-12T09:56:27.485Z,25.03
2024-04-12T09:57:27.512Z,25.04
2024-04-12T09:58:27.513Z,25.02
2024-04-12T09:59:27.493Z,25.03
2024-04-12T10:00:27.493Z,24.98
2024-04-12T10:01:27.507Z,24.92
2024-04-12T10:02:27.556Z,24.88
2024-04-12T10:03:27.592Z,24.87
2024-04-12T10:04:27.514Z,24.89
2024-04-12T10:05:27.509Z,24.92
2024-04-12T10:06:27.575Z,24.93
2024-04-12T10:07:32.645Z,24.93
2024-04-12T10:08:27.602Z,24.92
2024-04-12T10:09:27.616Z,24.89
2024-04-12T10:10:43.111Z,24.84
2024-04-12T10:11:27.681Z,24.81
2024-04-12T10:12:27.623Z,24.82
2024-04-12T10:13:42.125Z,24.82
2024-04-12T10:14:27.763Z,24.83
2024-04-12T10:15:27.809Z,24.84
2024-04-12T10:16:43.583Z,24.78
2024-04-12T10:17:27.945Z,24.72
2024-04-12T10:18:28.008Z,24.74
2024-04-12T10:19:27.887Z,24.74
2024-04-12T10:20:27.892Z,24.70
2024-04-12T10:21:27.907Z,24.61
2024-04-12T10:22:27.904Z,24.55
2024-04-12T10:23:27.900Z,24.49
2024-04-12T10:24:27.931Z,24.48
2024-04-12T10:25:27.919Z,24.49
2024-04-12T10:26:28.120Z,24.52
2024-04-12T10:27:28.177Z,24.57
2024-04-12T10:28:27.904Z,24.63
2024-04-12T10:29:27.910Z,24.69
2024-04-12T10:30:27.907Z,24.75
2024-04-12T10:31:27.914Z,24.80
2024-04-12T10:32:28.218Z,24.84
2024-04-12T10:33:28.064Z,24.89
2024-04-12T10:34:27.901Z,24.93
2024-04-12T10:35:34.625Z,24.97
2024-04-12T10:36:28.001Z,25.00
2024-04-12T10:37:27.909Z,25.05
2024-04-12T10:38:41.180Z,25.07
2024-04-12T10:39:28.982Z,25.09
2024-04-12T10:40:27.927Z,25.13
2024-04-12T10:41:51.668Z,25.14
2024-04-12T10:42:27.923Z,25.12
2024-04-12T10:43:27.919Z,25.16
2024-04-12T10:45:27.950Z,25.13
2024-04-12T10:46:27.958Z,25.19
2024-04-12T10:47:27.923Z,25.21
2024-04-12T10:48:27.974Z,25.23
2024-04-12T10:49:27.930Z,25.24
2024-04-12T10:50:27.936Z,25.26
2024-04-12T10:51:27.936Z,25.27
2024-04-12T10:52:27.958Z,25.28
2024-04-12T10:53:27.949Z,25.28
2024-04-12T10:54:27.930Z,25.30
2024-04-12T10:55:27.938Z,25.30
2024-04-12T10:56:27.964Z,25.31
2024-04-12T10:57:28.023Z,25.32
2024-04-12T10:58:27.942Z,25.33
2024-04-12T10:59:28.042Z,25.34
2024-04-12T11:00:34.742Z,25.34
2024-04-12T11:01:28.392Z,25.33
2024-04-12T11:02:28.002Z,25.35
2024-04-12T11:03:42.711Z,25.35
2024-04-12T11:04:27.995Z,25.33
2024-04-12T11:05:28.041Z,25.35
2024-04-12T11:06:48.974Z,25.35
2024-04-12T11:07:27.972Z,25.32
2024-04-12T11:08:28.170Z,25.34
2024-04-12T11:09:48.974Z,25.35
2024-04-12T11:10:27.969Z,25.32
2024-04-12T11:11:28.002Z,25.34
2024-04-12T11:12:28.160Z,25.35
2024-04-12T11:13:27.987Z,25.36
2024-04-12T11:14:27.992Z,25.36
2024-04-12T11:15:28.043Z,25.36
2024-04-12T11:16:28.008Z,25.36
2024-04-12T11:17:28.005Z,25.37
2024-04-12T11:18:28.118Z,25.37
2024-04-12T11:19:28.024Z,25.38
2024-04-12T11:20:28.006Z,25.38
2024-04-12T11:21:27.999Z,25.37
2024-04-12T11:22:28.023Z,25.37
2024-04-12T11:23:27.993Z,25.38
2024-04-12T11:24:28.003Z,25.38
2024-04-12T11:25:27.996Z,25.38
2024-04-12T11:26:28.025Z,25.38
2024-04-12T11:27:28.073Z,25.38
2024-04-12T11:28:44.171Z,25.39
2024-04-12T11:29:28.026Z,25.36
2024-04-12T11:30:28.015Z,25.37
2024-04-12T11:31:49.075Z,25.37
2024-04-12T11:32:28.020Z,25.34
2024-04-12T11:33:33.870Z,25.36
2024-04-12T11:35:00.270Z,25.36
2024-04-12T11:35:28.033Z,25.31
2024-04-12T11:36:28.031Z,25.35
2024-04-12T11:37:49.470Z,25.35
2024-04-12T11:38:28.035Z,25.33
2024-04-12T11:39:28.042Z,25.36
2024-04-12T11:40:28.050Z,25.37
2024-04-12T11:41:28.084Z,25.37
2024-04-12T11:42:28.048Z,25.38
2024-04-12T11:43:28.330Z,25.37
2024-04-12T11:44:28.129Z,25.38
2024-04-12T11:45:28.055Z,25.38
2024-04-12T11:46:28.074Z,25.38
2024-04-12T11:47:28.150Z,25.38
2024-04-12T11:48:28.186Z,25.38
2024-04-12T11:49:28.672Z,25.38
2024-04-12T11:50:28.086Z,25.39
2024-04-12T11:51:28.082Z,25.38
2024-04-12T11:52:28.086Z,25.38
2024-04-12T11:53:28.100Z,25.39
2024-04-12T11:54:28.074Z,25.38
2024-04-12T11:55:29.368Z,25.38
2024-04-12T11:56:34.720Z,25.39
2024-04-12T11:57:28.093Z,25.38
2024-04-12T11:58:28.083Z,25.38
2024-04-12T11:59:35.182Z,25.38
2024-04-12T12:00:28.107Z,25.37
2024-04-12T12:01:28.076Z,25.39
2024-04-12T12:02:56.793Z,25.38
2024-04-12T12:03:28.172Z,25.33
2024-04-12T12:04:28.167Z,25.36
2024-04-12T12:05:28.103Z,25.37
2024-04-12T12:06:28.109Z,25.38
2024-04-12T12:07:28.143Z,25.38
2024-04-12T12:08:28.088Z,25.39
2024-04-12T12:09:28.095Z,25.41
2024-04-12T12:10:28.093Z,25.40
2024-04-12T12:11:28.113Z,25.42
2024-04-12T12:12:28.699Z,25.43
2024-04-12T12:13:28.109Z,25.43
2024-04-12T12:14:28.108Z,25.43
2024-04-12T12:15:28.149Z,25.44
2024-04-12T12:16:28.137Z,25.45
2024-04-12T12:17:28.132Z,25.45
2024-04-12T12:18:28.221Z,25.46
2024-04-12T12:19:28.125Z,25.46
2024-04-12T12:20:28.130Z,25.47
2024-04-12T12:21:31.183Z,25.48
2024-04-12T12:22:28.127Z,25.47
2024-04-12T12:23:28.133Z,25.47
2024-04-12T12:24:49.472Z,25.47
2024-04-12T12:25:28.173Z,25.43
2024-04-12T12:26:28.148Z,25.46
2024-04-12T12:27:56.687Z,25.47
2024-04-12T12:28:28.205Z,25.41
2024-04-12T12:29:28.155Z,25.44
2024-04-12T12:30:28.256Z,25.45
2024-04-12T12:31:28.140Z,25.46
2024-04-12T12:32:28.212Z,25.47
2024-04-12T12:33:28.248Z,25.47
2024-04-12T12:34:28.150Z,25.47
2024-04-12T12:35:28.147Z,25.48
2024-04-12T12:36:28.153Z,25.47
2024-04-12T12:37:28.153Z,25.47
2024-04-12T12:38:28.150Z,25.48
2024-04-12T12:39:28.154Z,25.47
2024-04-12T12:40:28.159Z,25.48
2024-04-12T12:41:28.181Z,25.47
2024-04-12T12:42:28.164Z,25.47
2024-04-12T12:43:28.210Z,25.48
2024-04-12T12:44:28.164Z,25.49
2024-04-12T12:45:28.169Z,25.49
2024-04-12T12:46:42.692Z,25.50
2024-04-12T12:47:28.509Z,25.50
2024-04-12T12:48:28.468Z,25.51
2024-04-12T12:49:35.191Z,25.52
2024-04-12T12:50:28.355Z,25.53
2024-04-12T12:51:28.368Z,25.53
2024-04-12T12:52:39.194Z,25.53
2024-04-12T12:53:28.493Z,25.51
2024-04-12T12:54:28.375Z,25.52